This is the latest recevied weather packets stored in our database for station/object KG5VSR. If no packets are shown the sender has not sent any weather packets the latest 10 day(s).
| Time | Temp. | Humidity | Pressure | Rain* | Wind** | Luminosity | Snow |
|---|---|---|---|---|---|---|---|
| 1777949410 | 23.89° C | 75% | 1007.1 hPa | 0 mm | - | 0 W/m² | - |
| 1777947610 | 23.89° C | 74% | 1006.8 hPa | 0 mm | - | 0 W/m² | - |
| 1777945806 | 24.44° C | 73% | 1006.9 hPa | 0 mm | - | 0 W/m² | - |
| 1777944000 | 24.44° C | 72% | 1006.8 hPa | 0 mm | - | 0 W/m² | - |
| 1777942197 | 25° C | 70% | 1006.9 hPa | 0 mm | - | 10 W/m² | - |
| 1777940396 | 25.56° C | 69% | 1006.9 hPa | 0 mm | - | 38 W/m² | - |
| 1777938596 | 25.56° C | 67% | 1007.1 hPa | 0 mm | - | 82 W/m² | - |
| 1777936794 | 26.11° C | 66% | 1007.3 hPa | 0 mm | - | 120 W/m² | - |
| 1777934993 | 26.67° C | 64% | 1007.5 hPa | 0 mm | - | 235 W/m² | - |
| 1777933192 | 26.67° C | 64% | 1007.7 hPa | 0 mm | - | 408 W/m² | - |
| 1777931390 | 27.22° C | 63% | 1008.1 hPa | 0 mm | - | 249 W/m² | - |
| 1777929588 | 27.78° C | 61% | 1008.7 hPa | 0 mm | - | 640 W/m² | - |
| 1777927782 | 26.67° C | 63% | 1009.1 hPa | 0 mm | - | 601 W/m² | - |
| 1777925977 | 26.67° C | 61% | 1009.8 hPa | 0 mm | - | 634 W/m² | - |
| 1777924176 | 27.22° C | 59% | 1010.5 hPa | 0 mm | - | 640 W/m² | - |
| 1777922371 | 26.67° C | 58% | 1010.9 hPa | 0 mm | - | 703 W/m² | - |
| 1777920567 | 26.11° C | 58% | 1011 hPa | 0 mm | - | 743 W/m² | - |
| 1777918766 | 26.67° C | 57% | 1011.4 hPa | 0 mm | - | 488 W/m² | - |
| 1777916964 | 26.11° C | 55% | 1012 hPa | 0 mm | - | 748 W/m² | - |
| 1777915162 | 25° C | 54% | 1012.2 hPa | 0 mm | - | 812 W/m² | - |
| 1777913360 | 24.44° C | 57% | 1013.2 hPa | 0 mm | - | 828 W/m² | - |
| 1777911556 | 23.33° C | 59% | 1013.3 hPa | 0 mm | - | 673 W/m² | - |
| 1777909755 | 23.33° C | 61% | 1013.5 hPa | 0 mm | - | 704 W/m² | - |
| 1777907955 | 21.67° C | 67% | 1013.5 hPa | 0 mm | - | 483 W/m² | - |
| 1777906151 | 21.11° C | 71% | 1014.1 hPa | 0 mm | - | 446 W/m² | - |
* Rain latest hour (hover to see other rain measurements)
** Current wind speed in m/s (hover to see current wind gust speed)